createdAt,value
2018-09-22T00:00:27.148Z,0.00
2018-09-22T00:01:27.148Z,0.00
2018-09-22T00:02:27.142Z,0.00
2018-09-22T00:03:27.139Z,0.00
2018-09-22T00:04:27.134Z,0.00
2018-09-22T00:05:27.126Z,0.00
2018-09-22T00:06:27.118Z,0.00
2018-09-22T00:07:27.118Z,0.00
2018-09-22T00:08:27.113Z,0.00
2018-09-22T00:09:27.103Z,0.00
2018-09-22T00:10:27.098Z,0.00
2018-09-22T00:11:27.094Z,0.00
2018-09-22T00:12:27.089Z,0.00
2018-09-22T00:13:27.087Z,0.00
2018-09-22T00:14:27.080Z,0.00
2018-09-22T00:15:27.076Z,0.00
2018-09-22T00:16:27.071Z,0.00
2018-09-22T00:17:27.060Z,0.00
2018-09-22T00:18:27.055Z,0.00
2018-09-22T00:19:27.051Z,0.00
2018-09-22T00:20:27.046Z,0.00
2018-09-22T00:21:27.044Z,0.00
2018-09-22T00:22:27.039Z,0.00
2018-09-22T00:23:27.029Z,0.00
2018-09-22T00:24:27.025Z,0.00
2018-09-22T00:25:27.024Z,0.00
2018-09-22T00:26:27.018Z,0.00
2018-09-22T00:27:27.014Z,0.00
2018-09-22T00:28:27.009Z,0.00
2018-09-22T00:29:26.997Z,0.00
2018-09-22T00:30:26.993Z,0.00
2018-09-22T00:31:26.987Z,0.00
2018-09-22T00:32:26.983Z,0.00
2018-09-22T00:33:26.981Z,0.00
2018-09-22T00:34:26.976Z,0.00
2018-09-22T00:35:26.973Z,0.00
2018-09-22T00:36:26.966Z,0.00
2018-09-22T00:37:26.955Z,0.00
2018-09-22T00:38:26.950Z,0.00
2018-09-22T00:39:26.950Z,0.00
2018-09-22T00:40:26.946Z,0.00
2018-09-22T00:41:26.935Z,0.00
2018-09-22T00:42:26.929Z,0.00
2018-09-22T00:43:26.925Z,0.00
2018-09-22T00:44:26.920Z,0.00
2018-09-22T00:45:26.919Z,0.00
2018-09-22T00:46:26.914Z,0.00
2018-09-22T00:47:26.909Z,0.00
2018-09-22T00:48:26.905Z,0.00
2018-09-22T00:49:26.892Z,0.00
2018-09-22T00:50:26.888Z,0.00
2018-09-22T00:51:26.884Z,0.00
2018-09-22T00:52:26.879Z,0.00
2018-09-22T00:53:26.877Z,0.00
2018-09-22T00:54:26.872Z,0.00
2018-09-22T00:55:26.862Z,0.00
2018-09-22T00:56:26.859Z,0.00
2018-09-22T00:57:26.859Z,0.00
2018-09-22T00:58:26.853Z,0.00
2018-09-22T00:59:26.853Z,0.00
2018-09-22T01:00:26.845Z,0.00
2018-09-22T01:01:26.834Z,0.00
2018-09-22T01:02:26.829Z,0.00
2018-09-22T01:03:26.824Z,0.00
2018-09-22T01:04:26.818Z,0.00
2018-09-22T01:05:26.818Z,0.00
2018-09-22T01:06:26.815Z,0.00
2018-09-22T01:07:26.808Z,0.00
2018-09-22T01:08:26.804Z,0.00
2018-09-22T01:09:26.793Z,0.00
2018-09-22T01:10:26.788Z,0.00
2018-09-22T01:11:26.788Z,0.00
2018-09-22T01:12:26.783Z,0.00
2018-09-22T01:13:26.776Z,0.00
2018-09-22T01:14:26.768Z,0.00
2018-09-22T01:15:26.767Z,0.00
2018-09-22T01:16:26.759Z,0.00
2018-09-22T01:17:26.757Z,0.00
2018-09-22T01:18:26.753Z,0.00
2018-09-22T01:19:26.747Z,0.00
2018-09-22T01:20:26.748Z,0.00
2018-09-22T01:21:26.735Z,0.00
2018-09-22T01:22:26.726Z,0.00
2018-09-22T01:23:26.723Z,0.00
2018-09-22T01:24:26.718Z,0.00
2018-09-22T01:25:26.720Z,0.00
2018-09-22T01:26:26.711Z,0.00
2018-09-22T01:27:26.701Z,0.00
2018-09-22T01:28:26.701Z,0.00
2018-09-22T01:29:26.694Z,0.00
2018-09-22T01:30:26.689Z,0.00
2018-09-22T01:31:26.683Z,0.00
2018-09-22T01:32:26.679Z,0.00
2018-09-22T01:33:26.669Z,0.00
2018-09-22T01:34:26.664Z,0.00
2018-09-22T01:35:26.657Z,0.00
2018-09-22T01:36:26.653Z,0.00
2018-09-22T01:37:26.651Z,0.00
2018-09-22T01:38:26.645Z,0.00
2018-09-22T01:39:26.641Z,0.00
2018-09-22T01:40:26.635Z,0.00
2018-09-22T01:41:26.625Z,0.00
2018-09-22T01:42:26.619Z,0.00
2018-09-22T01:43:26.618Z,0.00
2018-09-22T01:44:26.614Z,0.00
2018-09-22T01:45:26.603Z,0.00
2018-09-22T01:46:26.597Z,0.00
2018-09-22T01:47:26.591Z,0.00
2018-09-22T01:48:26.587Z,0.00
2018-09-22T01:49:26.585Z,0.00
2018-09-22T01:50:26.578Z,0.00
2018-09-22T01:51:26.573Z,0.00
2018-09-22T01:52:26.603Z,0.00
2018-09-22T01:53:26.557Z,0.00
2018-09-22T01:54:26.552Z,0.00
2018-09-22T01:55:26.550Z,0.00
2018-09-22T01:56:26.541Z,0.00
2018-09-22T01:57:26.589Z,0.00
2018-09-22T01:58:26.534Z,0.00
2018-09-22T01:59:26.525Z,0.00
2018-09-22T02:00:26.518Z,0.00
2018-09-22T02:01:26.516Z,0.00
2018-09-22T02:02:26.511Z,0.00
2018-09-22T02:03:26.505Z,0.00
2018-09-22T02:04:26.500Z,0.00
2018-09-22T02:05:26.488Z,0.00
2018-09-22T02:06:26.483Z,0.00
2018-09-22T02:07:26.477Z,0.00
2018-09-22T02:08:26.474Z,0.00
2018-09-22T02:09:26.468Z,0.00
2018-09-22T02:10:26.467Z,0.00
2018-09-22T02:11:26.459Z,0.00
2018-09-22T02:12:26.453Z,0.00
2018-09-22T02:13:26.442Z,0.00
2018-09-22T02:14:26.437Z,0.00
2018-09-22T02:15:26.436Z,0.00
2018-09-22T02:16:26.430Z,0.00
2018-09-22T02:17:26.417Z,0.00
2018-09-22T02:18:26.414Z,0.00
2018-09-22T02:19:26.408Z,0.00
2018-09-22T02:20:26.401Z,0.00
2018-09-22T02:21:26.400Z,0.00
2018-09-22T02:22:26.393Z,0.00
2018-09-22T02:23:26.389Z,0.00
2018-09-22T02:24:26.384Z,0.00
2018-09-22T02:25:26.371Z,0.00
2018-09-22T02:26:26.367Z,0.00
2018-09-22T02:27:26.361Z,0.00
2018-09-22T02:28:26.354Z,0.00
2018-09-22T02:29:26.353Z,0.00
2018-09-22T02:30:26.348Z,0.00
2018-09-22T02:31:26.338Z,0.00
2018-09-22T02:32:26.338Z,0.00
2018-09-22T02:33:26.330Z,0.00
2018-09-22T02:34:26.324Z,0.00
2018-09-22T02:35:26.318Z,0.00
2018-09-22T02:36:26.314Z,0.00
2018-09-22T02:37:26.304Z,0.00
2018-09-22T02:38:26.297Z,0.00
2018-09-22T02:39:26.290Z,0.00
2018-09-22T02:40:26.286Z,0.00
2018-09-22T02:41:26.283Z,0.00
2018-09-22T02:42:26.277Z,0.00
2018-09-22T02:43:26.272Z,0.00
2018-09-22T02:44:26.265Z,0.00
2018-09-22T02:45:26.255Z,0.00
2018-09-22T02:46:26.249Z,0.00
2018-09-22T02:47:26.248Z,0.00
2018-09-22T02:48:26.244Z,0.00
2018-09-22T02:49:26.230Z,0.00
2018-09-22T02:50:26.226Z,0.00
2018-09-22T02:51:26.220Z,0.00
2018-09-22T02:52:26.215Z,0.00
2018-09-22T02:53:26.213Z,0.00
2018-09-22T02:54:26.207Z,0.00
2018-09-22T02:55:26.201Z,0.00
2018-09-22T02:56:26.195Z,0.00
2018-09-22T02:57:26.186Z,0.00
2018-09-22T02:58:26.178Z,0.00
2018-09-22T02:59:26.172Z,0.00
2018-09-22T03:00:26.168Z,0.00
2018-09-22T03:01:26.165Z,0.00
2018-09-22T03:02:26.160Z,0.00
2018-09-22T03:03:26.149Z,0.00
2018-09-22T03:04:26.143Z,0.00
2018-09-22T03:05:26.141Z,0.00
2018-09-22T03:06:26.135Z,0.00
2018-09-22T03:07:26.131Z,0.00
2018-09-22T03:08:26.124Z,0.00
2018-09-22T03:09:26.113Z,0.00
2018-09-22T03:10:26.113Z,0.00
2018-09-22T03:11:26.101Z,0.00
2018-09-22T03:12:26.095Z,0.00
2018-09-22T03:13:26.096Z,0.00
2018-09-22T03:14:26.089Z,0.00
2018-09-22T03:15:26.161Z,0.00
2018-09-22T03:16:26.074Z,0.00
2018-09-22T03:17:26.064Z,0.00
2018-09-22T03:18:26.058Z,0.00
2018-09-22T03:19:26.058Z,0.00
2018-09-22T03:20:26.050Z,0.00
2018-09-22T03:21:26.045Z,0.00
2018-09-22T03:22:26.035Z,0.00
2018-09-22T03:23:26.034Z,0.00
2018-09-22T03:24:26.022Z,0.00
2018-09-22T03:25:26.021Z,0.00
2018-09-22T03:26:26.016Z,0.00
2018-09-22T03:27:26.013Z,0.00
2018-09-22T03:28:26.002Z,0.00
2018-09-22T03:29:25.992Z,0.00
2018-09-22T03:30:25.986Z,0.00
2018-09-22T03:31:25.983Z,0.00
2018-09-22T03:32:25.976Z,0.00
2018-09-22T03:33:25.978Z,0.00
2018-09-22T03:34:25.971Z,0.00
2018-09-22T03:35:25.956Z,0.00
2018-09-22T03:36:25.951Z,0.00
2018-09-22T03:37:25.950Z,0.00
2018-09-22T03:38:25.943Z,0.00
2018-09-22T03:39:25.936Z,0.00
2018-09-22T03:40:25.934Z,0.00
2018-09-22T03:41:25.921Z,0.00
2018-09-22T03:42:25.915Z,0.00
2018-09-22T03:43:25.909Z,0.00
2018-09-22T03:44:25.906Z,0.00
2018-09-22T03:45:25.901Z,0.00
2018-09-22T03:46:25.895Z,0.00
2018-09-22T03:47:25.890Z,0.00
2018-09-22T03:48:25.887Z,0.00
2018-09-22T03:49:25.873Z,0.00
2018-09-22T03:50:25.868Z,0.00
2018-09-22T03:51:25.866Z,0.00
2018-09-22T03:52:25.860Z,0.00
2018-09-22T03:53:25.850Z,0.00
2018-09-22T03:54:25.845Z,0.00
2018-09-22T03:55:25.837Z,0.00
2018-09-22T03:56:25.832Z,0.00
2018-09-22T03:57:25.830Z,0.00
2018-09-22T03:58:25.824Z,0.00
2018-09-22T03:59:25.819Z,0.00
2018-09-22T04:00:25.813Z,0.00
2018-09-22T04:01:25.802Z,0.00
2018-09-22T04:02:25.803Z,0.00
2018-09-22T04:03:25.792Z,0.00
2018-09-22T04:04:25.791Z,0.00
2018-09-22T04:05:25.785Z,0.00
2018-09-22T04:06:25.779Z,0.00
2018-09-22T04:07:25.770Z,0.00
2018-09-22T04:08:25.765Z,0.00
2018-09-22T04:09:25.762Z,0.00
2018-09-22T04:10:25.800Z,0.00
2018-09-22T04:11:25.751Z,0.00
2018-09-22T04:12:25.745Z,0.00
2018-09-22T04:13:25.735Z,0.00
2018-09-22T04:14:25.733Z,0.00
2018-09-22T04:15:25.725Z,0.00
2018-09-22T04:16:25.718Z,0.00
2018-09-22T04:17:25.718Z,0.00
2018-09-22T04:18:25.714Z,0.00
2018-09-22T04:19:25.706Z,0.00
2018-09-22T04:20:25.702Z,0.00
2018-09-22T04:21:25.690Z,0.00
2018-09-22T04:22:25.684Z,0.00
2018-09-22T04:23:25.685Z,0.00
2018-09-22T04:24:25.680Z,0.00
2018-09-22T04:25:25.668Z,0.00
2018-09-22T04:26:25.664Z,0.00
2018-09-22T04:27:25.665Z,0.00
2018-09-22T04:28:25.652Z,0.00
2018-09-22T04:29:25.651Z,0.00
2018-09-22T04:30:25.645Z,0.00
2018-09-22T04:31:25.642Z,0.00
2018-09-22T04:32:25.635Z,0.00
2018-09-22T04:33:25.705Z,0.00
2018-09-22T04:34:25.637Z,0.00
2018-09-22T04:35:25.617Z,0.00
2018-09-22T04:36:25.608Z,0.00
2018-09-22T04:37:25.609Z,0.00
2018-09-22T04:38:25.601Z,0.00
2018-09-22T04:39:25.592Z,0.00
2018-09-22T04:40:25.586Z,0.00
2018-09-22T04:41:25.585Z,0.00
2018-09-22T04:42:25.580Z,0.00
2018-09-22T04:43:25.576Z,0.00
2018-09-22T04:44:25.571Z,0.00
2018-09-22T04:45:25.564Z,0.00
2018-09-22T04:46:25.555Z,0.00
2018-09-22T04:47:25.549Z,0.00
2018-09-22T04:48:25.544Z,0.00
2018-09-22T04:49:25.542Z,4.00
2018-09-22T04:50:25.538Z,4.00
2018-09-22T04:51:25.531Z,0.00
2018-09-22T04:52:25.526Z,4.00
2018-09-22T04:53:25.516Z,4.00
2018-09-22T04:54:25.511Z,4.00
2018-09-22T04:55:25.509Z,4.00
2018-09-22T04:56:25.504Z,8.00
2018-09-22T04:57:25.495Z,8.00
2018-09-22T04:58:25.491Z,8.00
2018-09-22T04:59:25.487Z,12.00
2018-09-22T05:00:25.478Z,12.00
2018-09-22T05:01:25.476Z,16.00
2018-09-22T05:02:25.472Z,16.00
2018-09-22T05:03:25.467Z,20.00
2018-09-22T05:04:25.461Z,24.00
2018-09-22T05:05:25.451Z,24.00
2018-09-22T05:06:25.445Z,32.00
2018-09-22T05:07:25.439Z,36.00
2018-09-22T05:08:25.434Z,44.00
2018-09-22T05:09:25.432Z,48.00
2018-09-22T05:10:25.428Z,60.00
2018-09-22T05:11:25.418Z,68.00
2018-09-22T05:12:25.412Z,76.00
2018-09-22T05:13:25.410Z,88.00
2018-09-22T05:14:25.404Z,100.00
2018-09-22T05:15:25.400Z,108.00
2018-09-22T05:16:25.397Z,120.00
2018-09-22T05:17:25.384Z,136.00
2018-09-22T05:18:25.378Z,152.00
2018-09-22T05:19:25.372Z,160.00
2018-09-22T05:20:25.369Z,168.00
2018-09-22T05:21:25.367Z,168.00
2018-09-22T05:22:25.362Z,168.00
2018-09-22T05:23:25.355Z,176.00
2018-09-22T05:24:25.351Z,192.00
2018-09-22T05:25:25.338Z,212.00
2018-09-22T05:26:25.334Z,252.00
2018-09-22T05:27:25.335Z,292.00
2018-09-22T05:28:25.327Z,308.00
2018-09-22T05:29:25.319Z,308.00
2018-09-22T05:30:25.311Z,312.00
2018-09-22T05:31:25.307Z,304.00
2018-09-22T05:32:25.301Z,320.00
2018-09-22T05:33:25.364Z,364.00
2018-09-22T05:34:25.294Z,460.00
2018-09-22T05:35:25.344Z,584.00
2018-09-22T05:36:25.283Z,732.00
2018-09-22T05:37:25.272Z,788.00
2018-09-22T05:38:25.265Z,828.00
2018-09-22T05:39:25.261Z,856.00
2018-09-22T05:40:25.255Z,840.00
2018-09-22T05:41:25.255Z,796.00
2018-09-22T05:42:25.248Z,764.00
2018-09-22T05:43:25.238Z,760.00
2018-09-22T05:44:25.232Z,760.00
2018-09-22T05:45:25.230Z,780.00
2018-09-22T05:46:25.240Z,880.00
2018-09-22T05:47:25.220Z,936.00
2018-09-22T05:48:25.215Z,924.00
2018-09-22T05:49:25.204Z,892.00
2018-09-22T05:50:25.249Z,880.00
2018-09-22T05:51:25.192Z,872.00
2018-09-22T05:52:25.188Z,876.00
2018-09-22T05:53:25.187Z,980.00
2018-09-22T05:54:25.181Z,1256.00
2018-09-22T05:55:25.175Z,1408.00
2018-09-22T05:56:25.169Z,1432.00
2018-09-22T05:57:25.158Z,1372.00
2018-09-22T05:58:25.152Z,1436.00
2018-09-22T05:59:25.152Z,1340.00
2018-09-22T06:00:25.147Z,1340.00
2018-09-22T06:01:25.135Z,1508.00
2018-09-22T06:02:25.131Z,1720.00
2018-09-22T06:03:25.138Z,2104.00
2018-09-22T06:04:25.121Z,2592.00
2018-09-22T06:05:25.131Z,2848.00
2018-09-22T06:06:25.114Z,3100.00
2018-09-22T06:07:25.108Z,3280.00
2018-09-22T06:08:25.103Z,3528.00
2018-09-22T06:09:25.143Z,3828.00
2018-09-22T06:10:25.086Z,3932.00
2018-09-22T06:11:25.082Z,4044.00
2018-09-22T06:12:25.077Z,4220.00
2018-09-22T06:13:25.076Z,6044.00
2018-09-22T06:14:25.069Z,8132.00
2018-09-22T06:15:25.060Z,5548.00
2018-09-22T06:16:25.054Z,5328.00
2018-09-22T06:17:25.054Z,6396.00
2018-09-22T06:18:25.050Z,5848.00
2018-09-22T06:19:25.044Z,5776.00
2018-09-22T06:20:25.040Z,5216.00
2018-09-22T06:21:25.030Z,6392.00
2018-09-22T06:22:25.024Z,10376.00
2018-09-22T06:23:25.032Z,9928.00
2018-09-22T06:24:25.016Z,10740.00
2018-09-22T06:25:25.016Z,9552.00
2018-09-22T06:26:25.011Z,10384.00
2018-09-22T06:27:25.007Z,12832.00
2018-09-22T06:28:25.001Z,11580.00
2018-09-22T06:29:24.994Z,5448.00
2018-09-22T06:30:24.991Z,7076.00
2018-09-22T06:31:24.990Z,6796.00
2018-09-22T06:32:24.987Z,4980.00
2018-09-22T06:33:24.977Z,4084.00
2018-09-22T06:34:24.977Z,4060.00
2018-09-22T06:35:24.972Z,4008.00
2018-09-22T06:36:24.971Z,4060.00
2018-09-22T06:37:25.012Z,4896.00
2018-09-22T06:38:24.966Z,5884.00
2018-09-22T06:39:24.973Z,6880.00
2018-09-22T06:40:24.960Z,7644.00
2018-09-22T06:41:24.950Z,6876.00
2018-09-22T06:42:24.975Z,7076.00
2018-09-22T06:43:24.945Z,7812.00
2018-09-22T06:44:24.942Z,11360.00
2018-09-22T06:45:24.943Z,12928.00
2018-09-22T06:46:24.940Z,12292.00
2018-09-22T06:47:24.932Z,7120.00
2018-09-22T06:48:24.929Z,7480.00
2018-09-22T06:49:24.929Z,7484.00
2018-09-22T06:50:24.930Z,8224.00
2018-09-22T06:51:24.923Z,8320.00
2018-09-22T06:52:24.921Z,13068.00
2018-09-22T06:53:24.912Z,9112.00
2018-09-22T06:54:24.908Z,8800.00
2018-09-22T06:55:24.906Z,9340.00
2018-09-22T06:56:24.904Z,8896.00
2018-09-22T06:57:24.903Z,7272.00
2018-09-22T06:58:24.903Z,8848.00
2018-09-22T06:59:24.899Z,11444.00
2018-09-22T07:00:24.897Z,8792.00
2018-09-22T07:01:24.888Z,9116.00
2018-09-22T07:02:24.885Z,8920.00
2018-09-22T07:03:24.889Z,9120.00
2018-09-22T07:04:24.886Z,8884.00
2018-09-22T07:05:24.879Z,7716.00
2018-09-22T07:06:24.904Z,6952.00
2018-09-22T07:07:24.874Z,7188.00
2018-09-22T07:08:24.873Z,8644.00
2018-09-22T07:09:24.875Z,12492.00
2018-09-22T07:10:24.876Z,12568.00
2018-09-22T07:11:24.871Z,12344.00
2018-09-22T07:12:24.870Z,11116.00
2018-09-22T07:13:24.864Z,10620.00
2018-09-22T07:14:24.860Z,7884.00
2018-09-22T07:15:24.863Z,7512.00
2018-09-22T07:16:24.859Z,7092.00
2018-09-22T07:17:24.860Z,6776.00
2018-09-22T07:18:24.859Z,6592.00
2018-09-22T07:19:24.869Z,6448.00
2018-09-22T07:20:24.852Z,6436.00
2018-09-22T07:21:24.856Z,6472.00
2018-09-22T07:22:24.855Z,6488.00
2018-09-22T07:23:24.853Z,6584.00
2018-09-22T07:24:24.856Z,6872.00
2018-09-22T07:25:24.901Z,6888.00
2018-09-22T07:26:24.844Z,6904.00
2018-09-22T07:27:24.843Z,6820.00
2018-09-22T07:28:24.842Z,6760.00
2018-09-22T07:29:24.845Z,7052.00
2018-09-22T07:30:24.843Z,7564.00
2018-09-22T07:31:24.840Z,7948.00
2018-09-22T07:32:24.840Z,7848.00
2018-09-22T07:33:24.833Z,7584.00
2018-09-22T07:34:24.829Z,7268.00
2018-09-22T07:35:24.834Z,7004.00
2018-09-22T07:36:24.832Z,6928.00
2018-09-22T07:37:24.823Z,6972.00
2018-09-22T07:38:24.823Z,7912.00
2018-09-22T07:39:24.836Z,13588.00
2018-09-22T07:40:24.818Z,16384.00
2018-09-22T07:41:24.819Z,16064.00
2018-09-22T07:42:24.818Z,17184.00
2018-09-22T07:43:24.816Z,11296.00
2018-09-22T07:44:24.817Z,11568.00
2018-09-22T07:45:24.808Z,11504.00
2018-09-22T07:46:24.808Z,11464.00
2018-09-22T07:47:24.805Z,9860.00
2018-09-22T07:48:24.806Z,9364.00
2018-09-22T07:49:24.812Z,9768.00
2018-09-22T07:50:24.810Z,10240.00
2018-09-22T07:51:24.803Z,10700.00
2018-09-22T07:52:24.802Z,10980.00
2018-09-22T07:53:24.805Z,10384.00
2018-09-22T07:54:24.804Z,9152.00
2018-09-22T07:55:24.805Z,9020.00
2018-09-22T07:56:24.806Z,10896.00
2018-09-22T07:57:24.799Z,17856.00
2018-09-22T07:58:24.800Z,15060.00
2018-09-22T07:59:24.803Z,17760.00
2018-09-22T08:00:24.911Z,15776.00
2018-09-22T08:01:24.814Z,13960.00
2018-09-22T08:02:24.805Z,11784.00
2018-09-22T08:03:24.804Z,11232.00
2018-09-22T08:04:24.805Z,10948.00
2018-09-22T08:05:24.799Z,10624.00
2018-09-22T08:06:24.801Z,10716.00
2018-09-22T08:07:24.806Z,11292.00
2018-09-22T08:08:24.806Z,11644.00
2018-09-22T08:09:24.803Z,11844.00
2018-09-22T08:10:24.804Z,11164.00
2018-09-22T08:11:24.803Z,10236.00
2018-09-22T08:12:24.804Z,10000.00
2018-09-22T08:13:24.809Z,9904.00
2018-09-22T08:14:24.809Z,9400.00
2018-09-22T08:15:24.811Z,8992.00
2018-09-22T08:16:24.811Z,8584.00
2018-09-22T08:17:24.804Z,8476.00
2018-09-22T08:18:24.805Z,9076.00
2018-09-22T08:19:24.839Z,9848.00
2018-09-22T08:20:24.806Z,11280.00
2018-09-22T08:21:24.810Z,14556.00
2018-09-22T08:22:24.809Z,15392.00
2018-09-22T08:23:24.807Z,15744.00
2018-09-22T08:24:24.814Z,15872.00
2018-09-22T08:25:24.809Z,13356.00
2018-09-22T08:26:24.810Z,12512.00
2018-09-22T08:27:24.811Z,14120.00
2018-09-22T08:28:24.811Z,13828.00
2018-09-22T08:29:24.806Z,12524.00
2018-09-22T08:30:24.807Z,11660.00
2018-09-22T08:31:24.807Z,11436.00
2018-09-22T08:32:24.806Z,11516.00
2018-09-22T08:33:24.811Z,12016.00
2018-09-22T08:34:24.813Z,15244.00
2018-09-22T08:35:24.811Z,14264.00
2018-09-22T08:36:24.863Z,16704.00
2018-09-22T08:37:24.887Z,22560.00
2018-09-22T08:38:24.808Z,22560.00
2018-09-22T08:39:24.812Z,18336.00
2018-09-22T08:40:24.812Z,26464.00
2018-09-22T08:41:24.809Z,30336.00
2018-09-22T08:42:24.808Z,31584.00
2018-09-22T08:43:24.810Z,26304.00
2018-09-22T08:44:24.811Z,21568.00
2018-09-22T08:45:24.816Z,22176.00
2018-09-22T08:46:24.817Z,18816.00
2018-09-22T08:47:24.818Z,21920.00
2018-09-22T08:48:24.820Z,22368.00
2018-09-22T08:49:24.832Z,31936.00
2018-09-22T08:50:24.819Z,36832.00
2018-09-22T08:51:24.822Z,47008.00
2018-09-22T08:52:24.825Z,48352.00
2018-09-22T08:53:24.833Z,42144.00
2018-09-22T08:54:24.836Z,25568.00
2018-09-22T08:55:24.848Z,24960.00
2018-09-22T08:56:24.836Z,26496.00
2018-09-22T08:57:24.844Z,39648.00
2018-09-22T08:58:24.850Z,41152.00
2018-09-22T08:59:24.853Z,46016.00
2018-09-22T09:00:24.878Z,34176.00
2018-09-22T09:01:24.856Z,28640.00
2018-09-22T09:02:24.861Z,28512.00
2018-09-22T09:03:24.868Z,23520.00
2018-09-22T09:04:24.873Z,20544.00
2018-09-22T09:05:24.882Z,19904.00
2018-09-22T09:06:24.887Z,21184.00
2018-09-22T09:07:24.893Z,21472.00
2018-09-22T09:08:24.899Z,19616.00
2018-09-22T09:09:24.899Z,18944.00
2018-09-22T09:10:24.905Z,19360.00
2018-09-22T09:11:24.992Z,21376.00
2018-09-22T09:12:24.920Z,27744.00
2018-09-22T09:13:24.925Z,21824.00
2018-09-22T09:14:24.931Z,23168.00
2018-09-22T09:15:24.932Z,21184.00
2018-09-22T09:16:24.937Z,23680.00
2018-09-22T09:17:24.947Z,25024.00
2018-09-22T09:18:24.951Z,19360.00
2018-09-22T09:19:24.963Z,28736.00
2018-09-22T09:20:24.964Z,26304.00
2018-09-22T09:21:24.964Z,27456.00
2018-09-22T09:22:24.972Z,27776.00
2018-09-22T09:23:24.978Z,29344.00
2018-09-22T09:24:24.984Z,29888.00
2018-09-22T09:25:25.021Z,26912.00
2018-09-22T09:26:25.001Z,30048.00
2018-09-22T09:27:25.021Z,27072.00
2018-09-22T09:28:25.011Z,19776.00
2018-09-22T09:29:25.022Z,23232.00
2018-09-22T09:30:25.030Z,23296.00
2018-09-22T09:31:25.039Z,27904.00
2018-09-22T09:32:25.047Z,20160.00
2018-09-22T09:33:25.058Z,29632.00
2018-09-22T09:34:25.061Z,28128.00
2018-09-22T09:35:25.067Z,25152.00
2018-09-22T09:36:25.078Z,22048.00
2018-09-22T09:37:25.089Z,18592.00
2018-09-22T09:38:25.097Z,18912.00
2018-09-22T09:39:25.108Z,20192.00
2018-09-22T09:40:25.118Z,19136.00
2018-09-22T09:41:25.120Z,18368.00
2018-09-22T09:42:25.131Z,18656.00
2018-09-22T09:43:25.223Z,16768.00
2018-09-22T09:44:25.156Z,16896.00
2018-09-22T09:45:25.162Z,16704.00
2018-09-22T09:46:25.168Z,19872.00
2018-09-22T09:47:25.174Z,22784.00
2018-09-22T09:48:25.183Z,20896.00
2018-09-22T09:49:25.196Z,15968.00
2018-09-22T09:50:25.204Z,17504.00
2018-09-22T09:51:25.214Z,14244.00
2018-09-22T09:52:25.216Z,12576.00
2018-09-22T09:53:25.279Z,12344.00
2018-09-22T09:54:25.243Z,12364.00
2018-09-22T09:55:25.245Z,12736.00
2018-09-22T09:56:25.255Z,13168.00
2018-09-22T09:57:25.253Z,16064.00
2018-09-22T09:58:25.260Z,14408.00
2018-09-22T09:59:25.279Z,12064.00
2018-09-22T10:00:25.279Z,11448.00
2018-09-22T10:01:25.278Z,11920.00
2018-09-22T10:02:25.287Z,12496.00
2018-09-22T10:03:25.292Z,15712.00
2018-09-22T10:04:25.365Z,16064.00
2018-09-22T10:05:25.307Z,11604.00
2018-09-22T10:06:25.312Z,16640.00
2018-09-22T10:07:25.317Z,16672.00
2018-09-22T10:08:25.323Z,18592.00
2018-09-22T10:09:25.322Z,14276.00
2018-09-22T10:10:25.328Z,13632.00
2018-09-22T10:11:25.332Z,13364.00
2018-09-22T10:12:25.336Z,14772.00
2018-09-22T10:13:25.345Z,12712.00
2018-09-22T10:14:25.349Z,16192.00
2018-09-22T10:15:25.351Z,14268.00
2018-09-22T10:16:25.354Z,13672.00
2018-09-22T10:17:25.363Z,16672.00
2018-09-22T10:18:25.367Z,19744.00
2018-09-22T10:19:25.373Z,23072.00
2018-09-22T10:20:25.377Z,24864.00
2018-09-22T10:21:25.377Z,23328.00
2018-09-22T10:22:25.383Z,23744.00
2018-09-22T10:23:25.386Z,18432.00
2018-09-22T10:24:25.389Z,17696.00
2018-09-22T10:25:25.399Z,23296.00
2018-09-22T10:26:25.406Z,18112.00
2018-09-22T10:27:25.410Z,21024.00
2018-09-22T10:28:25.453Z,20192.00
2018-09-22T10:29:25.416Z,22912.00
2018-09-22T10:30:25.420Z,23616.00
2018-09-22T10:31:25.431Z,26848.00
2018-09-22T10:32:25.437Z,28608.00
2018-09-22T10:33:25.438Z,24960.00
2018-09-22T10:34:25.443Z,23424.00
2018-09-22T10:35:25.451Z,25600.00
2018-09-22T10:36:25.458Z,24032.00
2018-09-22T10:37:25.466Z,25280.00
2018-09-22T10:38:25.474Z,22752.00
2018-09-22T10:39:25.481Z,18912.00
2018-09-22T10:40:25.491Z,21024.00
2018-09-22T10:41:25.489Z,23488.00
2018-09-22T10:42:25.506Z,17888.00
2018-09-22T10:43:25.505Z,17056.00
2018-09-22T10:44:25.513Z,18976.00
2018-09-22T10:45:25.527Z,16928.00
2018-09-22T10:46:25.530Z,22144.00
2018-09-22T10:47:25.534Z,18880.00
2018-09-22T10:48:25.541Z,17472.00
2018-09-22T10:49:25.551Z,20480.00
2018-09-22T10:50:25.559Z,17760.00
2018-09-22T10:51:25.566Z,16864.00
2018-09-22T10:52:25.617Z,16128.00
2018-09-22T10:53:25.574Z,14680.00
2018-09-22T10:54:25.581Z,14380.00
2018-09-22T10:55:25.588Z,12536.00
2018-09-22T10:56:25.593Z,13296.00
2018-09-22T10:57:25.603Z,13548.00
2018-09-22T10:58:25.608Z,13440.00
2018-09-22T10:59:25.616Z,12332.00
2018-09-22T11:00:25.629Z,12048.00
2018-09-22T11:01:25.623Z,12372.00
2018-09-22T11:02:25.629Z,13304.00
2018-09-22T11:03:25.675Z,14980.00
2018-09-22T11:04:25.643Z,13368.00
2018-09-22T11:05:25.642Z,13392.00
2018-09-22T11:06:25.648Z,12496.00
2018-09-22T11:07:25.657Z,11664.00
2018-09-22T11:08:25.656Z,11624.00
2018-09-22T11:09:25.666Z,11612.00
2018-09-22T11:10:25.670Z,10284.00
2018-09-22T11:11:25.699Z,11596.00
2018-09-22T11:12:25.680Z,12988.00
2018-09-22T11:13:25.678Z,11880.00
2018-09-22T11:14:25.682Z,11648.00
2018-09-22T11:15:25.686Z,13076.00
2018-09-22T11:16:25.691Z,13800.00
2018-09-22T11:17:25.698Z,16128.00
2018-09-22T11:18:25.702Z,12532.00
2018-09-22T11:19:25.701Z,12024.00
2018-09-22T11:20:25.705Z,10612.00
2018-09-22T11:21:25.713Z,11656.00
2018-09-22T11:22:25.715Z,11824.00
2018-09-22T11:23:25.718Z,10948.00
2018-09-22T11:24:25.724Z,11064.00
2018-09-22T11:25:25.720Z,13344.00
2018-09-22T11:26:25.724Z,13984.00
2018-09-22T11:27:25.727Z,14008.00
2018-09-22T11:28:25.731Z,13540.00
2018-09-22T11:29:25.737Z,12948.00
2018-09-22T11:30:25.741Z,12868.00
2018-09-22T11:31:25.746Z,14032.00
2018-09-22T11:32:25.784Z,15112.00
2018-09-22T11:33:25.747Z,13632.00
2018-09-22T11:34:25.748Z,10164.00
2018-09-22T11:35:25.757Z,8744.00
2018-09-22T11:36:25.760Z,10420.00
2018-09-22T11:37:25.760Z,10564.00
2018-09-22T11:38:25.842Z,11428.00
2018-09-22T11:39:25.765Z,10292.00
2018-09-22T11:40:25.767Z,11092.00
2018-09-22T11:41:25.773Z,11360.00
2018-09-22T11:42:25.778Z,10932.00
2018-09-22T11:43:25.778Z,10672.00
2018-09-22T11:44:25.783Z,10192.00
2018-09-22T11:45:25.781Z,10248.00
2018-09-22T11:46:25.787Z,8196.00
2018-09-22T11:47:25.786Z,9604.00
2018-09-22T11:48:25.789Z,9656.00
2018-09-22T11:49:25.796Z,8420.00
2018-09-22T11:50:25.798Z,9068.00
2018-09-22T11:51:25.795Z,9224.00
2018-09-22T11:52:25.803Z,9524.00
2018-09-22T11:53:25.803Z,9744.00
2018-09-22T11:54:25.807Z,8680.00
2018-09-22T11:55:25.807Z,6520.00
2018-09-22T11:56:25.848Z,5164.00
2018-09-22T11:57:25.807Z,5804.00
2018-09-22T11:58:25.810Z,7772.00
2018-09-22T11:59:25.813Z,9144.00
2018-09-22T12:00:25.815Z,10200.00
2018-09-22T12:01:25.820Z,9136.00
2018-09-22T12:02:25.823Z,7884.00
2018-09-22T12:03:25.822Z,7900.00
2018-09-22T12:04:25.825Z,8164.00
2018-09-22T12:05:25.822Z,8692.00
2018-09-22T12:06:25.901Z,8472.00
2018-09-22T12:07:25.828Z,7364.00
2018-09-22T12:08:25.830Z,6368.00
2018-09-22T12:09:25.827Z,6664.00
2018-09-22T12:10:25.829Z,6112.00
2018-09-22T12:11:25.833Z,5892.00
2018-09-22T12:12:25.842Z,5308.00
2018-09-22T12:13:25.841Z,5024.00
2018-09-22T12:14:25.845Z,4972.00
2018-09-22T12:15:25.840Z,4500.00
2018-09-22T12:16:25.842Z,3924.00
2018-09-22T12:17:25.836Z,3428.00
2018-09-22T12:18:25.838Z,2976.00
2018-09-22T12:19:25.838Z,2580.00
2018-09-22T12:20:25.839Z,2456.00
2018-09-22T12:21:25.900Z,2728.00
2018-09-22T12:22:25.845Z,3188.00
2018-09-22T12:23:25.841Z,3252.00
2018-09-22T12:24:25.842Z,3240.00
2018-09-22T12:25:25.848Z,3464.00
2018-09-22T12:26:25.846Z,4008.00
2018-09-22T12:27:25.847Z,4888.00